createdAt,value
2023-02-26T00:02:46.610Z,0.43
2023-02-26T00:07:48.840Z,0.33
2023-02-26T00:12:51.239Z,0.45
2023-02-26T00:18:04.273Z,0.30
2023-02-26T00:23:06.978Z,0.45
2023-02-26T00:28:09.986Z,0.43
2023-02-26T00:33:12.352Z,0.25
2023-02-26T00:38:17.251Z,0.32
2023-02-26T00:43:27.327Z,0.29
2023-02-26T00:48:45.625Z,0.21
2023-02-26T00:53:55.665Z,0.02
2023-02-26T00:58:58.669Z,0.20
2023-02-26T01:04:01.093Z,0.06
2023-02-26T01:09:27.351Z,0.20
2023-02-26T01:14:32.382Z,0.06
2023-02-26T01:19:56.315Z,0.25
2023-02-26T01:25:05.923Z,0.24
2023-02-26T01:30:09.035Z,0.13
2023-02-26T01:35:24.922Z,0.11
2023-02-26T01:40:35.277Z,0.20
2023-02-26T01:45:56.305Z,0.22
2023-02-26T01:50:58.865Z,-0.04
2023-02-26T01:56:05.246Z,-0.15
2023-02-26T02:01:08.117Z,0.16
2023-02-26T02:06:16.041Z,0.15
2023-02-26T02:11:18.285Z,0.16
2023-02-26T02:16:37.233Z,0.19
2023-02-26T02:21:44.967Z,0.17
2023-02-26T02:26:59.814Z,0.16
2023-02-26T02:32:15.070Z,-0.02
2023-02-26T02:37:25.259Z,0.19
2023-02-26T02:42:38.336Z,0.06
2023-02-26T02:47:42.401Z,0.14
2023-02-26T02:53:09.501Z,0.21
2023-02-26T02:58:21.807Z,0.05
2023-02-26T03:03:37.806Z,-0.05
2023-02-26T03:08:41.735Z,0.01
2023-02-26T03:13:45.269Z,0.06
2023-02-26T03:19:21.692Z,0.03
2023-02-26T03:24:29.881Z,0.13
2023-02-26T03:29:53.609Z,0.18
2023-02-26T03:35:03.403Z,0.04
2023-02-26T03:40:15.320Z,-0.12
2023-02-26T03:45:22.677Z,0.15
2023-02-26T03:50:46.295Z,0.21
2023-02-26T03:55:58.358Z,0.28
2023-02-26T04:01:26.861Z,0.01
2023-02-26T04:06:29.842Z,0.17
2023-02-26T04:11:33.050Z,0.00
2023-02-26T04:16:35.463Z,0.06
2023-02-26T04:21:37.789Z,0.03
2023-02-26T04:26:41.570Z,0.18
2023-02-26T04:31:43.933Z,0.18
2023-02-26T04:36:46.718Z,0.02
2023-02-26T04:41:49.163Z,0.05
2023-02-26T04:46:51.410Z,-0.05
2023-02-26T04:51:53.857Z,0.18
2023-02-26T04:56:57.225Z,0.02
2023-02-26T05:02:01.847Z,0.19
2023-02-26T05:07:04.329Z,0.05
2023-02-26T05:12:06.502Z,0.06
2023-02-26T05:17:09.331Z,0.22
2023-02-26T05:22:11.597Z,0.22
2023-02-26T05:27:15.233Z,0.14
2023-02-26T05:32:21.416Z,-0.01
2023-02-26T05:37:23.922Z,0.13
2023-02-26T05:42:26.203Z,0.24
2023-02-26T05:47:28.402Z,0.09
2023-02-26T05:52:30.669Z,0.21
2023-02-26T05:57:33.049Z,0.14
2023-02-26T06:02:35.278Z,-0.02
2023-02-26T06:07:39.920Z,0.03
2023-02-26T06:12:42.234Z,0.31
2023-02-26T06:17:50.621Z,0.03
2023-02-26T06:22:58.730Z,0.33
2023-02-26T06:28:00.957Z,0.04
2023-02-26T06:33:03.243Z,0.26
2023-02-26T06:38:05.555Z,0.28
2023-02-26T06:43:08.119Z,0.39
2023-02-26T06:48:10.737Z,0.32
2023-02-26T06:53:14.638Z,0.44
2023-02-26T06:58:17.064Z,0.35
2023-02-26T07:03:20.145Z,0.22
2023-02-26T07:08:22.513Z,0.48
2023-02-26T07:13:24.870Z,0.30
2023-02-26T07:18:27.098Z,0.49
2023-02-26T07:23:32.525Z,0.39
2023-02-26T07:28:35.175Z,0.50
2023-02-26T07:33:39.054Z,0.51
2023-02-26T07:38:41.437Z,0.30
2023-02-26T07:43:45.017Z,0.49
2023-02-26T07:48:47.498Z,0.55
2023-02-26T07:53:50.709Z,0.58
2023-02-26T07:58:53.261Z,0.48
2023-02-26T08:03:55.626Z,0.66
2023-02-26T08:09:00.550Z,0.49
2023-02-26T08:14:03.744Z,0.60
2023-02-26T08:19:06.274Z,0.61
2023-02-26T08:24:08.524Z,0.43
2023-02-26T08:29:11.091Z,0.45
2023-02-26T08:34:13.893Z,0.35
2023-02-26T08:39:16.279Z,0.43
2023-02-26T08:44:18.883Z,0.36
2023-02-26T08:49:21.094Z,0.29
2023-02-26T08:54:23.717Z,0.35
2023-02-26T08:59:26.176Z,0.33
2023-02-26T09:04:31.019Z,0.57
2023-02-26T09:09:33.672Z,0.41
2023-02-26T09:14:36.038Z,0.52
2023-02-26T09:19:38.339Z,0.39
2023-02-26T09:24:40.724Z,0.56
2023-02-26T09:29:43.119Z,0.43
2023-02-26T09:34:45.349Z,0.48
2023-02-26T09:39:47.700Z,0.41
2023-02-26T09:44:51.677Z,0.33
2023-02-26T09:50:06.313Z,0.51
2023-02-26T09:55:16.885Z,0.57
2023-02-26T10:00:34.780Z,0.63
2023-02-26T10:06:05.172Z,0.61
2023-02-26T10:11:18.322Z,0.47
2023-02-26T10:16:23.930Z,0.69
2023-02-26T10:21:34.501Z,0.69
2023-02-26T10:26:50.873Z,0.64
2023-02-26T10:32:21.318Z,0.76
2023-02-26T10:37:48.589Z,0.73
2023-02-26T10:42:59.013Z,0.70
2023-02-26T10:48:22.642Z,0.78
2023-02-26T10:53:27.606Z,0.72
2023-02-26T10:58:29.832Z,0.54
2023-02-26T11:03:39.561Z,0.77
2023-02-26T11:08:45.601Z,0.89
2023-02-26T11:13:47.820Z,0.81
2023-02-26T11:18:59.410Z,0.76
2023-02-26T11:24:22.494Z,0.87
2023-02-26T11:29:26.548Z,0.79
2023-02-26T11:34:30.187Z,0.91
2023-02-26T11:39:35.020Z,0.92
2023-02-26T11:44:43.622Z,0.93
2023-02-26T11:49:51.800Z,0.97
2023-02-26T11:55:01.598Z,0.83
2023-02-26T12:00:19.500Z,0.61
2023-02-26T12:05:22.895Z,0.56
2023-02-26T12:10:40.809Z,0.46
2023-02-26T12:16:04.289Z,0.47
2023-02-26T12:21:17.392Z,0.44
2023-02-26T12:26:53.957Z,0.24
2023-02-26T12:32:25.774Z,0.42
2023-02-26T12:38:02.998Z,0.45
2023-02-26T12:43:17.173Z,0.42
2023-02-26T12:48:41.399Z,0.50
2023-02-26T12:53:55.706Z,0.49
2023-02-26T12:59:07.937Z,0.33
2023-02-26T13:04:27.530Z,0.51
2023-02-26T13:09:34.731Z,0.28
2023-02-26T13:14:42.172Z,0.35
2023-02-26T13:19:54.288Z,0.17
2023-02-26T13:25:34.112Z,0.18
2023-02-26T13:30:43.744Z,-0.09
2023-02-26T13:35:46.362Z,-0.03
2023-02-26T13:40:58.699Z,-0.29
2023-02-26T13:46:25.225Z,-0.33
2023-02-26T13:51:36.456Z,-0.47
2023-02-26T13:56:38.639Z,-0.50
2023-02-26T14:01:46.878Z,-0.52
2023-02-26T14:07:05.656Z,-0.54
2023-02-26T14:12:13.677Z,-0.58
2023-02-26T14:17:15.904Z,-0.60
2023-02-26T14:22:46.618Z,-0.59
2023-02-26T14:27:49.801Z,-0.86
2023-02-26T14:32:58.316Z,-0.65
2023-02-26T14:38:04.714Z,-0.71
2023-02-26T14:43:11.192Z,-1.01
2023-02-26T14:48:16.244Z,-0.99
2023-02-26T14:53:34.253Z,-0.99
2023-02-26T14:58:52.592Z,-0.93
2023-02-26T15:04:05.171Z,-1.00
2023-02-26T15:09:23.593Z,-1.00
2023-02-26T15:14:47.142Z,-0.96
2023-02-26T15:19:55.100Z,-1.02
2023-02-26T15:24:59.205Z,-1.27
2023-02-26T15:30:21.243Z,-1.29
2023-02-26T15:35:24.343Z,-1.21
2023-02-26T15:40:29.592Z,-1.30
2023-02-26T15:45:38.321Z,-1.43
2023-02-26T15:50:43.917Z,-1.34
2023-02-26T15:55:51.347Z,-1.48
2023-02-26T16:00:55.158Z,-1.41
2023-02-26T16:05:58.782Z,-1.47
2023-02-26T16:11:01.634Z,-1.51
2023-02-26T16:16:18.495Z,-1.43
2023-02-26T16:21:41.027Z,-1.63
2023-02-26T16:27:14.535Z,-1.43
2023-02-26T16:32:20.612Z,-1.67
2023-02-26T16:37:29.081Z,-1.59
2023-02-26T16:42:55.453Z,-1.68
2023-02-26T16:47:59.282Z,-1.93
2023-02-26T16:53:04.589Z,-1.78
2023-02-26T16:58:09.447Z,-1.89
2023-02-26T17:03:18.838Z,-2.16
2023-02-26T17:08:24.480Z,-2.11
2023-02-26T17:13:32.514Z,-1.96
2023-02-26T17:18:34.729Z,-2.22
2023-02-26T17:23:38.364Z,-2.31
2023-02-26T17:28:44.039Z,-2.06
2023-02-26T17:33:49.748Z,-2.35
2023-02-26T17:38:59.071Z,-2.24
2023-02-26T17:44:01.662Z,-2.30
2023-02-26T17:49:05.270Z,-2.23
2023-02-26T17:54:07.681Z,-2.35
2023-02-26T17:59:10.040Z,-2.35
2023-02-26T18:04:16.970Z,-2.68
2023-02-26T18:09:19.645Z,-2.64
2023-02-26T18:14:26.819Z,-2.54
2023-02-26T18:19:32.083Z,-2.21
2023-02-26T18:24:35.414Z,-2.60
2023-02-26T18:29:40.873Z,-2.34
2023-02-26T18:34:43.375Z,-2.27
2023-02-26T18:39:46.183Z,-2.33
2023-02-26T18:44:49.271Z,-2.28
2023-02-26T18:49:52.236Z,-2.40
2023-02-26T18:54:54.455Z,-2.70
2023-02-26T19:00:00.804Z,-2.43
2023-02-26T19:05:03.101Z,-2.65
2023-02-26T19:10:08.321Z,-2.46
2023-02-26T19:15:12.997Z,-2.60
2023-02-26T19:20:15.257Z,-2.73
2023-02-26T19:25:24.547Z,-2.56
2023-02-26T19:30:27.267Z,-2.47
2023-02-26T19:35:33.701Z,-2.85
2023-02-26T19:40:35.908Z,-2.85
2023-02-26T19:45:38.106Z,-2.70
2023-02-26T19:50:40.571Z,-2.75
2023-02-26T19:55:43.263Z,-3.04
2023-02-26T20:00:45.769Z,-2.82
2023-02-26T20:05:48.181Z,-2.83
2023-02-26T20:10:50.877Z,-2.76
2023-02-26T20:15:53.689Z,-2.75
2023-02-26T20:20:59.861Z,-2.80
2023-02-26T20:26:24.490Z,-2.71
2023-02-26T20:31:27.171Z,-2.89
2023-02-26T20:36:29.612Z,-3.02
2023-02-26T20:41:32.115Z,-2.91
2023-02-26T20:46:36.146Z,-2.92
2023-02-26T20:51:40.450Z,-2.97
2023-02-26T20:56:42.785Z,-3.04
2023-02-26T21:01:48.941Z,-3.14
2023-02-26T21:06:51.495Z,-3.11
2023-02-26T21:11:54.268Z,-3.11
2023-02-26T21:16:59.261Z,-3.22
2023-02-26T21:22:01.608Z,-3.26
2023-02-26T21:27:03.936Z,-3.08
2023-02-26T21:32:07.263Z,-3.10
2023-02-26T21:37:11.274Z,-3.37
2023-02-26T21:42:16.569Z,-3.12
2023-02-26T21:47:20.224Z,-3.13
2023-02-26T21:52:23.191Z,-3.12
2023-02-26T21:57:26.302Z,-3.09
2023-02-26T22:02:30.677Z,-3.40
2023-02-26T22:07:33.273Z,-3.25
2023-02-26T22:12:35.426Z,-3.15
2023-02-26T22:17:37.716Z,-3.49
2023-02-26T22:22:40.220Z,-3.18
2023-02-26T22:27:42.285Z,-3.53
2023-02-26T22:32:44.381Z,-3.25
2023-02-26T22:37:46.504Z,-3.26
2023-02-26T22:42:49.236Z,-3.35
2023-02-26T22:47:51.406Z,-3.31
2023-02-26T22:52:53.586Z,-3.49
2023-02-26T22:57:55.750Z,-3.29
2023-02-26T23:02:57.937Z,-3.37
2023-02-26T23:08:00.033Z,-3.65
2023-02-26T23:13:03.279Z,-3.65
2023-02-26T23:18:05.445Z,-3.44
2023-02-26T23:23:07.696Z,-3.52
2023-02-26T23:28:10.180Z,-3.77
2023-02-26T23:33:12.854Z,-3.55
2023-02-26T23:38:33.440Z,-3.42
2023-02-26T23:43:35.717Z,-3.66
2023-02-26T23:48:37.960Z,-3.63
2023-02-26T23:53:40.202Z,-3.63
2023-02-26T23:58:42.442Z,-3.70
